F/V Le Dolmen — FHMD — position and weather

sailwx.info

Track history (hours):
 
Tides and Currents Weather Stations Pressure Air Temp Water Temp Dewpoint Dewpoint Depression Visibility Wind Speed Wind Dir Waves Ship Positions

F/V Le Dolmen

Last reported at 2015-Jun-30 07:28 UTC. Time now 2015-Jun-30 14:29 UTC.
Position N 46°47' W 005°20'.

Length 18 m.

Type: Fishing. MMSI: 228374000.

Date/timePositionNaut miles runAvg speedWind from/ knotsBaromVisibWave heightAir tempDewpointWater temp
2015-Jun-30 07:28N 46°47' W 005°20'8 1.0
2015-Jun-29 23:32N 46°43' W 005°10'7 1.4
2015-Jun-29 18:29N 46°42' W 004°59'4 2.2
2015-Jun-29 16:33N 46°42' W 004°53'2 1.6
2015-Jun-29 15:32N 46°42' W 004°55'4 1.6
2015-Jun-29 13:16N 46°39' W 004°53'4 1.1
2015-Jun-29 09:33N 46°38' W 004°60'1 0.4
2015-Jun-29 06:31N 46°38' W 004°58'29 6.6
2015-Jun-29 02:10N 46°59' W 004°30'16 9.0
2015-Jun-29 00:27N 47°10' W 004°14'8 8.8
2015-Jun-28 23:32N 47°16' W 004°06'9 8.6
2015-Jun-28 22:32N 47°22' W 003°57'10 8.6
2015-Jun-28 21:24N 47°29' W 003°47'7 8.8
2015-Jun-28 20:33N 47°35' W 003°39'9 8.8
2015-Jun-28 19:34N 47°40' W 003°29'  
2015-Jun-25 19:20N 47°44' W 003°22'0 0.3
2015-Jun-25 18:33N 47°44' W 003°22'0 0.0
2015-Jun-25 17:33N 47°44' W 003°22'0 0.2
2015-Jun-25 16:33N 47°44' W 003°22'7 7.0
2015-Jun-25 15:34N 47°37' W 003°23'7 7.1
2015-Jun-25 14:33N 47°35' W 003°33'7 6.6
2015-Jun-25 13:32N 47°34' W 003°43'9 9.1
2015-Jun-25 12:33N 47°25' W 003°44'7 6.9
2015-Jun-25 11:33N 47°18' W 003°45'6 4.6
2015-Jun-25 10:19N 47°17' W 003°37'2 3.2
2015-Jun-25 09:33N 47°17' W 003°33'6 5.8
2015-Jun-25 08:31N 47°11' W 003°37'3 3.0
2015-Jun-25 07:33N 47°11' W 003°33'8 8.4
2015-Jun-25 06:33N 47°03' W 003°29'5 4.6
2015-Jun-25 05:29N 47°07' W 003°33'8 8.0
2015-Jun-25 04:33N 47°14' W 003°35'4 3.5
2015-Jun-25 03:33N 47°18' W 003°36'2 2.1
2015-Jun-25 02:33N 47°19' W 003°34'9 8.1
2015-Jun-25 01:29N 47°27' W 003°28'8 8.4
2015-Jun-25 00:33N 47°34' W 003°23'8 8.4
2015-Jun-24 23:34N 47°42' W 003°22'7 6.6
2015-Jun-24 22:33N 47°36' W 003°23'10 9.6
2015-Jun-24 21:33N 47°30' W 003°34'10 9.8
2015-Jun-24 20:33N 47°23' W 003°45'10 9.7
2015-Jun-24 19:33N 47°18' W 003°56'8 8.4
2015-Jun-24 18:33N 47°13' W 004°07'42 9.5
2015-Jun-24 14:06N 46°47' W 004°56'14 0.3
2015-Jun-22 17:33N 46°34' W 004°54'5 4.7
2015-Jun-22 16:24N 46°33' W 005°02'6 2.8
2015-Jun-22 14:09N 46°29' W 004°55'3 4.8
2015-Jun-22 13:32N 46°27' W 004°52'4 3.6
2015-Jun-22 12:33N 46°28' W 004°57'3 3.4
2015-Jun-22 11:33N 46°26' W 004°53'4 3.9
2015-Jun-22 10:30N 46°24' W 004°47'1 0.8
2015-Jun-22 09:33N 46°24' W 004°48'1 0.5
2015-Jun-22 08:19N 46°24' W 004°49'5 4.3
2015-Jun-22 07:16N 46°21' W 004°43'1 1.1
2015-Jun-22 06:33N 46°20' W 004°43'7 6.4
2015-Jun-22 05:27N 46°18' W 004°33'6 6.4
2015-Jun-22 04:30N 46°18' W 004°25'1 0.8
2015-Jun-22 03:33N 46°17' W 004°24'0 0.2
2015-Jun-22 02:33N 46°17' W 004°24'0 0.4
2015-Jun-22 01:26N 46°17' W 004°23'2 2.2
2015-Jun-22 00:28N 46°17' W 004°26'4 4.4
2015-Jun-21 23:29N 46°18' W 004°32'8 4.2
2015-Jun-21 21:29N 46°19' W 004°44'1 1.0
2015-Jun-21 20:28N 46°19' W 004°46'3 2.1
2015-Jun-21 19:12N 46°18' W 004°42'3 3.5
2015-Jun-21 18:25N 46°20' W 004°41'3 3.0
2015-Jun-21 17:30N 46°18' W 004°39'1 1.1
2015-Jun-21 16:31N 46°19' W 004°38'7 4.9
2015-Jun-21 15:04N 46°16' W 004°29'3 1.7
2015-Jun-21 13:32N 46°17' W 004°25'3 2.7
2015-Jun-21 12:33N 46°19' W 004°27'16 1.3
2015-Jun-21 00:30N 46°03' W 004°21'2 0.8
2015-Jun-20 22:33N 46°05' W 004°21'2 1.6
2015-Jun-20 21:34N 46°07' W 004°21'7 6.5
2015-Jun-20 20:33N 46°13' W 004°21'5 5.3
2015-Jun-20 19:33N 46°17' W 004°16'10 9.9
2015-Jun-20 18:33N 46°26' W 004°09'9 9.2
2015-Jun-20 17:33N 46°34' W 004°04'9 9.0
2015-Jun-20 16:34N 46°43' W 003°59'9 8.8
2015-Jun-20 15:34N 46°51' W 003°53'9 9.0
2015-Jun-20 14:33N 46°59' W 003°48'10 9.1
2015-Jun-20 13:31N 47°08' W 003°43'9 9.1
2015-Jun-20 12:33N 47°16' W 003°37'9 9.1
2015-Jun-20 11:33N 47°24' W 003°32'9 9.2
2015-Jun-20 10:33N 47°32' W 003°26'10 9.5
2015-Jun-20 09:33N 47°41' W 003°22'2 2.3
2015-Jun-20 08:33N 47°44' W 003°22'0 0.0
2015-Jun-20 07:33N 47°44' W 003°22'  
Track history (hours):
 
Tides and Currents Weather Stations Pressure Air Temp Water Temp Dewpoint Dewpoint Depression Visibility Wind Speed Wind Dir Waves Ship Positions

F/V Le Dolmen

Last reported at 2015-Jun-30 07:28 UTC. Time now 2015-Jun-30 14:29 UTC.
Position N 46°47' W 005°20'.

Length 18 m.

Type: Fishing. MMSI: 228374000.

Date/timePositionNaut miles runAvg speedWind from/ knotsBaromVisibWave heightAir tempDewpointWater temp
2015-Jun-30 07:28N 46°47' W 005°20'8 1.0
2015-Jun-29 23:32N 46°43' W 005°10'7 1.4
2015-Jun-29 18:29N 46°42' W 004°59'4 2.2
2015-Jun-29 16:33N 46°42' W 004°53'2 1.6
2015-Jun-29 15:32N 46°42' W 004°55'4 1.6
2015-Jun-29 13:16N 46°39' W 004°53'4 1.1
2015-Jun-29 09:33N 46°38' W 004°60'1 0.4
2015-Jun-29 06:31N 46°38' W 004°58'29 6.6
2015-Jun-29 02:10N 46°59' W 004°30'16 9.0
2015-Jun-29 00:27N 47°10' W 004°14'8 8.8
2015-Jun-28 23:32N 47°16' W 004°06'9 8.6
2015-Jun-28 22:32N 47°22' W 003°57'10 8.6
2015-Jun-28 21:24N 47°29' W 003°47'7 8.8
2015-Jun-28 20:33N 47°35' W 003°39'9 8.8
2015-Jun-28 19:34N 47°40' W 003°29'  
2015-Jun-25 19:20N 47°44' W 003°22'0 0.3
2015-Jun-25 18:33N 47°44' W 003°22'0 0.0
2015-Jun-25 17:33N 47°44' W 003°22'0 0.2
2015-Jun-25 16:33N 47°44' W 003°22'7 7.0
2015-Jun-25 15:34N 47°37' W 003°23'7 7.1
2015-Jun-25 14:33N 47°35' W 003°33'7 6.6
2015-Jun-25 13:32N 47°34' W 003°43'9 9.1
2015-Jun-25 12:33N 47°25' W 003°44'7 6.9
2015-Jun-25 11:33N 47°18' W 003°45'6 4.6
2015-Jun-25 10:19N 47°17' W 003°37'2 3.2
2015-Jun-25 09:33N 47°17' W 003°33'6 5.8
2015-Jun-25 08:31N 47°11' W 003°37'3 3.0
2015-Jun-25 07:33N 47°11' W 003°33'8 8.4
2015-Jun-25 06:33N 47°03' W 003°29'5 4.6
2015-Jun-25 05:29N 47°07' W 003°33'8 8.0
2015-Jun-25 04:33N 47°14' W 003°35'4 3.5
2015-Jun-25 03:33N 47°18' W 003°36'2 2.1
2015-Jun-25 02:33N 47°19' W 003°34'9 8.1
2015-Jun-25 01:29N 47°27' W 003°28'8 8.4
2015-Jun-25 00:33N 47°34' W 003°23'8 8.4
2015-Jun-24 23:34N 47°42' W 003°22'7 6.6
2015-Jun-24 22:33N 47°36' W 003°23'10 9.6
2015-Jun-24 21:33N 47°30' W 003°34'10 9.8
2015-Jun-24 20:33N 47°23' W 003°45'10 9.7
2015-Jun-24 19:33N 47°18' W 003°56'8 8.4
2015-Jun-24 18:33N 47°13' W 004°07'42 9.5
2015-Jun-24 14:06N 46°47' W 004°56'14 0.3
2015-Jun-22 17:33N 46°34' W 004°54'5 4.7
2015-Jun-22 16:24N 46°33' W 005°02'6 2.8
2015-Jun-22 14:09N 46°29' W 004°55'3 4.8
2015-Jun-22 13:32N 46°27' W 004°52'4 3.6
2015-Jun-22 12:33N 46°28' W 004°57'3 3.4
2015-Jun-22 11:33N 46°26' W 004°53'4 3.9
2015-Jun-22 10:30N 46°24' W 004°47'1 0.8
2015-Jun-22 09:33N 46°24' W 004°48'1 0.5
2015-Jun-22 08:19N 46°24' W 004°49'5 4.3
2015-Jun-22 07:16N 46°21' W 004°43'1 1.1
2015-Jun-22 06:33N 46°20' W 004°43'7 6.4
2015-Jun-22 05:27N 46°18' W 004°33'6 6.4
2015-Jun-22 04:30N 46°18' W 004°25'1 0.8
2015-Jun-22 03:33N 46°17' W 004°24'0 0.2
2015-Jun-22 02:33N 46°17' W 004°24'0 0.4
2015-Jun-22 01:26N 46°17' W 004°23'2 2.2
2015-Jun-22 00:28N 46°17' W 004°26'4 4.4
2015-Jun-21 23:29N 46°18' W 004°32'8 4.2
2015-Jun-21 21:29N 46°19' W 004°44'1 1.0
2015-Jun-21 20:28N 46°19' W 004°46'3 2.1
2015-Jun-21 19:12N 46°18' W 004°42'3 3.5
2015-Jun-21 18:25N 46°20' W 004°41'3 3.0
2015-Jun-21 17:30N 46°18' W 004°39'1 1.1
2015-Jun-21 16:31N 46°19' W 004°38'7 4.9
2015-Jun-21 15:04N 46°16' W 004°29'3 1.7
2015-Jun-21 13:32N 46°17' W 004°25'3 2.7
2015-Jun-21 12:33N 46°19' W 004°27'16 1.3
2015-Jun-21 00:30N 46°03' W 004°21'2 0.8
2015-Jun-20 22:33N 46°05' W 004°21'2 1.6
2015-Jun-20 21:34N 46°07' W 004°21'7 6.5
2015-Jun-20 20:33N 46°13' W 004°21'5 5.3
2015-Jun-20 19:33N 46°17' W 004°16'10 9.9
2015-Jun-20 18:33N 46°26' W 004°09'9 9.2
2015-Jun-20 17:33N 46°34' W 004°04'9 9.0
2015-Jun-20 16:34N 46°43' W 003°59'9 8.8
2015-Jun-20 15:34N 46°51' W 003°53'9 9.0
2015-Jun-20 14:33N 46°59' W 003°48'10 9.1
2015-Jun-20 13:31N 47°08' W 003°43'9 9.1
2015-Jun-20 12:33N 47°16' W 003°37'9 9.1
2015-Jun-20 11:33N 47°24' W 003°32'9 9.2
2015-Jun-20 10:33N 47°32' W 003°26'10 9.5
2015-Jun-20 09:33N 47°41' W 003°22'2 2.3
2015-Jun-20 08:33N 47°44' W 003°22'0 0.0
2015-Jun-20 07:33N 47°44' W 003°22'  

Dump ship's entire track history